createdAt,value
2019-02-22T00:00:56.937Z,46.85
2019-02-22T00:02:18.640Z,43.83
2019-02-22T00:03:23.991Z,49.90
2019-02-22T00:04:29.663Z,46.83
2019-02-22T00:05:35.022Z,47.38
2019-02-22T00:06:39.731Z,44.55
2019-02-22T00:07:44.749Z,43.63
2019-02-22T00:08:49.758Z,50.45
2019-02-22T00:09:54.747Z,45.80
2019-02-22T00:10:59.865Z,49.27
2019-02-22T00:12:04.873Z,47.10
2019-02-22T00:13:10.123Z,46.33
2019-02-22T00:14:15.178Z,50.55
2019-02-22T00:15:20.164Z,50.80
2019-02-22T00:16:25.222Z,52.38
2019-02-22T00:17:30.570Z,47.93
2019-02-22T00:18:36.107Z,49.70
2019-02-22T00:19:41.093Z,45.92
2019-02-22T00:20:46.658Z,53.70
2019-02-22T00:21:52.027Z,46.28
2019-02-22T00:22:57.317Z,48.68
2019-02-22T00:24:02.141Z,46.18
2019-02-22T00:25:07.238Z,45.52
2019-02-22T00:26:12.738Z,47.62
2019-02-22T00:27:18.321Z,49.00
2019-02-22T00:28:23.590Z,52.60
2019-02-22T00:29:29.050Z,49.50
2019-02-22T00:30:34.303Z,48.65
2019-02-22T00:31:39.681Z,49.98
2019-02-22T00:32:44.413Z,48.42
2019-02-22T00:33:49.470Z,45.75
2019-02-22T00:34:54.608Z,44.42
2019-02-22T00:35:59.226Z,51.88
2019-02-22T00:37:04.456Z,47.33
2019-02-22T00:38:09.563Z,48.30
2019-02-22T00:39:14.397Z,51.98
2019-02-22T00:40:19.711Z,48.30
2019-02-22T00:41:24.797Z,48.15
2019-02-22T00:42:29.929Z,48.68
2019-02-22T00:43:35.602Z,48.75
2019-02-22T00:44:40.320Z,50.63
2019-02-22T00:45:45.026Z,53.85
2019-02-22T00:46:50.320Z,54.45
2019-02-22T00:47:55.429Z,54.70
2019-02-22T00:49:01.251Z,50.35
2019-02-22T00:50:06.346Z,50.45
2019-02-22T00:51:11.625Z,51.18
2019-02-22T00:52:16.611Z,46.45
2019-02-22T00:53:21.337Z,50.43
2019-02-22T00:54:26.314Z,50.75
2019-02-22T00:55:31.285Z,51.68
2019-02-22T00:56:36.656Z,46.70
2019-02-22T00:57:42.187Z,49.10
2019-02-22T00:58:47.474Z,53.83
2019-02-22T00:59:53.038Z,51.50
2019-02-22T01:00:58.305Z,48.75
2019-02-22T01:02:03.165Z,50.03
2019-02-22T01:03:08.434Z,49.73
2019-02-22T01:04:14.081Z,49.42
2019-02-22T01:05:19.371Z,50.25
2019-02-22T01:06:24.669Z,51.92
2019-02-22T01:07:29.674Z,47.70
2019-02-22T01:08:34.377Z,51.20
2019-02-22T01:09:39.720Z,48.73
2019-02-22T01:10:44.927Z,49.00
2019-02-22T01:11:50.210Z,48.95
2019-02-22T01:12:55.763Z,48.20
2019-02-22T01:14:00.846Z,52.85
2019-02-22T01:15:05.611Z,49.10
2019-02-22T01:16:10.618Z,48.63
2019-02-22T01:17:15.611Z,46.80
2019-02-22T01:18:21.236Z,52.35
2019-02-22T01:19:26.681Z,50.00
2019-02-22T01:20:31.728Z,52.13
2019-02-22T01:21:36.768Z,51.68
2019-02-22T01:22:41.522Z,49.70
2019-02-22T01:23:46.489Z,49.15
2019-02-22T01:24:51.537Z,48.58
2019-02-22T01:25:56.257Z,50.25
2019-02-22T01:27:01.318Z,48.78
2019-02-22T01:28:06.326Z,51.95
2019-02-22T01:29:11.338Z,49.80
2019-02-22T01:30:16.082Z,49.83
2019-02-22T01:31:20.814Z,48.65
2019-02-22T01:32:26.076Z,49.23
2019-02-22T01:33:31.075Z,50.90
2019-02-22T01:34:36.579Z,48.92
2019-02-22T01:35:42.169Z,49.93
2019-02-22T01:36:47.444Z,52.25
2019-02-22T01:37:52.159Z,49.63
2019-02-22T01:38:57.527Z,53.30
2019-02-22T01:40:02.955Z,46.37
2019-02-22T01:41:08.242Z,52.48
2019-02-22T01:42:12.954Z,52.70
2019-02-22T01:43:18.021Z,50.10
2019-02-22T01:44:26.272Z,48.42
2019-02-22T01:45:31.288Z,49.63
2019-02-22T01:46:36.589Z,52.00
2019-02-22T01:47:41.608Z,51.00
2019-02-22T01:48:47.279Z,51.40
2019-02-22T01:49:52.308Z,50.33
2019-02-22T01:50:57.615Z,50.05
2019-02-22T01:52:02.622Z,51.73
2019-02-22T01:53:07.702Z,51.08
2019-02-22T01:54:12.707Z,48.52
2019-02-22T01:55:17.704Z,50.63
2019-02-22T01:56:22.699Z,49.70
2019-02-22T01:57:27.985Z,48.08
2019-02-22T01:58:33.571Z,51.20
2019-02-22T01:59:38.868Z,49.48
2019-02-22T02:00:43.845Z,52.20
2019-02-22T02:01:49.123Z,48.75
2019-02-22T02:02:54.418Z,52.85
2019-02-22T02:03:59.650Z,52.13
2019-02-22T02:05:05.113Z,49.85
2019-02-22T02:06:09.802Z,48.52
2019-02-22T02:07:14.826Z,53.00
2019-02-22T02:08:20.100Z,48.33
2019-02-22T02:09:25.654Z,49.58
2019-02-22T02:10:30.758Z,51.68
2019-02-22T02:11:35.766Z,51.53
2019-02-22T02:12:41.059Z,49.38
2019-02-22T02:13:46.068Z,48.30
2019-02-22T02:14:51.098Z,48.83
2019-02-22T02:15:55.797Z,51.48
2019-02-22T02:17:02.117Z,51.02
2019-02-22T02:18:07.190Z,51.88
2019-02-22T02:19:12.735Z,49.55
2019-02-22T02:20:17.542Z,45.58
2019-02-22T02:21:22.478Z,51.83
2019-02-22T02:22:27.761Z,49.60
2019-02-22T02:23:32.749Z,48.78
2019-02-22T02:24:38.284Z,52.73
2019-02-22T02:25:43.572Z,50.80
2019-02-22T02:26:48.649Z,45.95
2019-02-22T02:27:53.650Z,42.03
2019-02-22T02:28:58.383Z,47.23
2019-02-22T02:30:03.663Z,47.33
2019-02-22T02:31:08.649Z,44.45
2019-02-22T02:32:14.058Z,44.18
2019-02-22T02:33:19.403Z,47.75
2019-02-22T02:34:24.722Z,46.33
2019-02-22T02:35:29.741Z,43.90
2019-02-22T02:36:34.224Z,44.80
2019-02-22T02:37:39.255Z,42.10
2019-02-22T02:38:44.276Z,40.65
2019-02-22T02:39:49.305Z,39.15
2019-02-22T02:41:06.853Z,42.27
2019-02-22T02:42:01.499Z,37.67
2019-02-22T02:43:06.786Z,38.17
2019-02-22T02:44:12.207Z,41.05
2019-02-22T02:45:17.589Z,38.20
2019-02-22T02:46:23.205Z,39.65
2019-02-22T02:47:28.501Z,38.88
2019-02-22T02:48:33.585Z,36.60
2019-02-22T02:49:39.022Z,41.50
2019-02-22T02:50:44.152Z,39.88
2019-02-22T02:51:49.530Z,40.25
2019-02-22T02:52:54.842Z,42.90
2019-02-22T02:54:00.187Z,40.38
2019-02-22T02:55:04.907Z,42.15
2019-02-22T02:56:10.591Z,41.55
2019-02-22T02:57:16.261Z,37.30
2019-02-22T02:58:21.171Z,37.88
2019-02-22T02:59:26.815Z,38.90
2019-02-22T03:00:31.628Z,39.90
2019-02-22T03:01:36.982Z,37.67
2019-02-22T03:02:42.073Z,39.80
2019-02-22T03:03:47.702Z,36.05
2019-02-22T03:04:52.780Z,38.33
2019-02-22T03:06:15.378Z,40.35
2019-02-22T03:07:38.156Z,38.73
2019-02-22T03:08:43.542Z,37.83
2019-02-22T03:09:48.968Z,39.35
2019-02-22T03:10:56.305Z,37.45
2019-02-22T03:12:00.884Z,34.48
2019-02-22T03:13:05.958Z,35.40
2019-02-22T03:14:10.943Z,34.50
2019-02-22T03:15:17.254Z,33.02
2019-02-22T03:16:22.341Z,33.78
2019-02-22T03:17:27.566Z,34.35
2019-02-22T03:18:33.373Z,36.17
2019-02-22T03:19:38.596Z,38.50
2019-02-22T03:20:43.384Z,36.83
2019-02-22T03:21:48.474Z,38.53
2019-02-22T03:22:53.753Z,37.05
2019-02-22T03:23:58.860Z,39.23
2019-02-22T03:25:03.862Z,42.35
2019-02-22T03:26:08.662Z,41.85
2019-02-22T03:27:14.065Z,42.93
2019-02-22T03:28:19.883Z,40.78
2019-02-22T03:29:25.635Z,45.30
2019-02-22T03:30:31.309Z,42.53
2019-02-22T03:31:37.374Z,38.98
2019-02-22T03:32:43.352Z,37.85
2019-02-22T03:33:48.729Z,36.63
2019-02-22T03:34:53.737Z,33.90
2019-02-22T03:35:59.083Z,39.03
2019-02-22T03:37:04.393Z,35.13
2019-02-22T03:38:09.223Z,37.48
2019-02-22T03:39:14.422Z,34.53
2019-02-22T03:40:19.550Z,36.63
2019-02-22T03:41:32.956Z,39.78
2019-02-22T03:42:32.696Z,38.48
2019-02-22T03:43:38.777Z,38.08
2019-02-22T03:44:43.616Z,40.70
2019-02-22T03:45:49.191Z,42.95
2019-02-22T03:46:53.667Z,43.17
2019-02-22T03:47:58.737Z,41.92
2019-02-22T03:49:04.450Z,45.85
2019-02-22T03:50:09.192Z,42.45
2019-02-22T03:51:14.631Z,42.43
2019-02-22T03:52:38.285Z,44.42
2019-02-22T03:53:47.809Z,42.67
2019-02-22T03:54:53.111Z,43.68
2019-02-22T03:55:58.387Z,42.65
2019-02-22T03:57:03.495Z,44.20
2019-02-22T03:58:08.674Z,43.33
2019-02-22T03:59:13.877Z,43.55
2019-02-22T04:00:19.232Z,45.58
2019-02-22T04:01:24.025Z,44.58
2019-02-22T04:02:29.650Z,44.05
2019-02-22T04:03:34.985Z,46.20
2019-02-22T04:04:40.338Z,46.08
2019-02-22T04:05:45.516Z,44.85
2019-02-22T04:06:50.640Z,46.08
2019-02-22T04:07:55.710Z,44.70
2019-02-22T04:09:01.485Z,42.20
2019-02-22T04:10:06.127Z,42.30
2019-02-22T04:11:11.807Z,40.88
2019-02-22T04:12:17.112Z,40.98
2019-02-22T04:13:22.421Z,38.70
2019-02-22T04:14:27.750Z,42.20
2019-02-22T04:15:32.767Z,41.28
2019-02-22T04:16:37.766Z,44.48
2019-02-22T04:17:42.481Z,39.15
2019-02-22T04:18:47.788Z,41.48
2019-02-22T04:19:53.236Z,44.42
2019-02-22T04:20:58.376Z,45.17
2019-02-22T04:22:03.719Z,40.60
2019-02-22T04:23:09.034Z,43.40
2019-02-22T04:24:14.388Z,43.45
2019-02-22T04:25:19.439Z,42.62
2019-02-22T04:26:25.028Z,46.37
2019-02-22T04:27:30.329Z,43.00
2019-02-22T04:28:35.708Z,44.18
2019-02-22T04:29:40.813Z,47.67
2019-02-22T04:30:46.128Z,44.35
2019-02-22T04:31:50.859Z,44.90
2019-02-22T04:32:55.859Z,47.03
2019-02-22T04:34:01.237Z,45.33
2019-02-22T04:35:06.127Z,48.98
2019-02-22T04:36:10.856Z,46.05
2019-02-22T04:37:15.856Z,47.05
2019-02-22T04:38:20.631Z,47.20
2019-02-22T04:39:26.358Z,51.48
2019-02-22T04:40:31.605Z,52.17
2019-02-22T04:41:36.587Z,51.40
2019-02-22T04:42:41.959Z,53.68
2019-02-22T04:43:47.314Z,53.90
2019-02-22T04:44:52.072Z,55.40
2019-02-22T04:45:57.147Z,56.30
2019-02-22T04:47:02.764Z,53.95
2019-02-22T04:48:07.560Z,55.25
2019-02-22T04:49:12.579Z,56.13
2019-02-22T04:50:18.161Z,56.53
2019-02-22T04:51:23.453Z,53.70
2019-02-22T04:52:28.820Z,56.08
2019-02-22T04:53:34.110Z,57.03
2019-02-22T04:54:39.433Z,63.30
2019-02-22T04:55:44.730Z,64.70
2019-02-22T04:56:49.706Z,58.17
2019-02-22T04:57:54.829Z,57.38
2019-02-22T04:59:00.439Z,62.88
2019-02-22T05:00:05.015Z,68.20
2019-02-22T05:01:10.029Z,65.12
2019-02-22T05:02:15.404Z,62.27
2019-02-22T05:03:20.639Z,60.25
2019-02-22T05:04:25.928Z,67.12
2019-02-22T05:05:30.966Z,64.67
2019-02-22T05:06:36.257Z,64.15
2019-02-22T05:07:41.533Z,65.17
2019-02-22T05:08:47.127Z,66.47
2019-02-22T05:09:52.525Z,66.30
2019-02-22T05:10:57.507Z,67.70
2019-02-22T05:12:10.826Z,76.00
2019-02-22T05:13:09.882Z,74.42
2019-02-22T05:14:15.215Z,73.20
2019-02-22T05:15:20.887Z,73.80
2019-02-22T05:16:25.871Z,72.97
2019-02-22T05:17:30.813Z,78.65
2019-02-22T05:18:35.794Z,77.65
2019-02-22T05:19:41.226Z,85.50
2019-02-22T05:20:46.518Z,87.40
2019-02-22T05:21:51.777Z,77.87
2019-02-22T05:23:03.752Z,84.77
2019-02-22T05:24:03.840Z,90.47
2019-02-22T05:25:08.390Z,88.60
2019-02-22T05:26:12.829Z,82.30
2019-02-22T05:27:18.144Z,84.85
2019-02-22T05:28:23.111Z,88.30
2019-02-22T05:29:28.062Z,85.80
2019-02-22T05:30:32.808Z,79.60
2019-02-22T05:31:37.795Z,82.67
2019-02-22T05:32:42.815Z,82.57
2019-02-22T05:33:48.368Z,84.75
2019-02-22T05:34:53.568Z,85.50
2019-02-22T05:35:59.135Z,80.60
2019-02-22T05:37:03.915Z,80.57
2019-02-22T05:38:08.629Z,81.57
2019-02-22T05:39:18.990Z,80.77
2019-02-22T05:40:20.592Z,85.70
2019-02-22T05:41:25.576Z,81.40
2019-02-22T05:42:31.118Z,78.45
2019-02-22T05:43:36.512Z,76.12
2019-02-22T05:44:42.094Z,78.28
2019-02-22T05:45:46.844Z,75.42
2019-02-22T05:47:00.315Z,75.60
2019-02-22T05:47:58.814Z,73.45
2019-02-22T05:49:06.715Z,70.22
2019-02-22T05:50:11.684Z,67.37
2019-02-22T05:51:16.930Z,72.40
2019-02-22T05:52:23.373Z,73.62
2019-02-22T05:53:28.075Z,75.30
2019-02-22T05:54:33.413Z,75.35
2019-02-22T05:55:39.573Z,76.67
2019-02-22T05:56:44.647Z,73.30
2019-02-22T05:57:49.619Z,68.47
2019-02-22T05:58:54.580Z,75.42
2019-02-22T05:59:59.870Z,79.03
2019-02-22T06:01:06.877Z,68.45
2019-02-22T06:02:14.340Z,74.97
2019-02-22T06:03:18.618Z,73.07
2019-02-22T06:04:23.339Z,71.87
2019-02-22T06:05:28.578Z,72.60
2019-02-22T06:06:33.876Z,73.40
2019-02-22T06:07:38.886Z,76.77
2019-02-22T06:08:43.861Z,72.42
2019-02-22T06:09:48.873Z,77.58
2019-02-22T06:10:53.859Z,76.17
2019-02-22T06:11:58.563Z,74.62
2019-02-22T06:13:06.155Z,73.83
2019-02-22T06:14:11.475Z,75.70
2019-02-22T06:15:16.455Z,70.00
2019-02-22T06:16:22.024Z,67.22
2019-02-22T06:17:27.076Z,70.95
2019-02-22T06:18:32.083Z,71.47
2019-02-22T06:19:37.093Z,74.90
2019-02-22T06:20:42.468Z,69.67
2019-02-22T06:21:48.072Z,72.27
2019-02-22T06:22:53.345Z,75.15
2019-02-22T06:23:58.590Z,68.12
2019-02-22T06:25:04.360Z,72.58
2019-02-22T06:26:09.379Z,70.32
2019-02-22T06:27:14.503Z,68.67
2019-02-22T06:28:19.715Z,72.90
2019-02-22T06:29:24.764Z,68.42
2019-02-22T06:30:29.470Z,70.35
2019-02-22T06:31:33.923Z,72.72
2019-02-22T06:32:42.162Z,72.87
2019-02-22T06:33:46.450Z,75.15
2019-02-22T06:34:51.473Z,74.05
2019-02-22T06:35:56.444Z,72.35
2019-02-22T06:37:02.474Z,79.90
2019-02-22T06:38:07.898Z,79.80
2019-02-22T06:39:12.977Z,71.47
2019-02-22T06:40:17.984Z,72.20
2019-02-22T06:41:23.609Z,77.50
2019-02-22T06:42:28.923Z,75.00
2019-02-22T06:43:33.923Z,78.78
2019-02-22T06:44:39.242Z,69.75
2019-02-22T06:45:44.315Z,71.42
2019-02-22T06:46:50.078Z,71.40
2019-02-22T06:47:55.133Z,68.87
2019-02-22T06:49:00.152Z,71.62
2019-02-22T06:50:11.200Z,71.15
2019-02-22T06:51:15.991Z,71.30
2019-02-22T06:52:21.651Z,72.67
2019-02-22T06:53:26.677Z,71.75
2019-02-22T06:54:32.261Z,71.10
2019-02-22T06:55:37.639Z,75.75
2019-02-22T06:56:42.678Z,79.70
2019-02-22T06:57:48.033Z,74.90
2019-02-22T06:58:53.161Z,73.57
2019-02-22T06:59:58.363Z,70.32
2019-02-22T07:01:03.402Z,72.60
2019-02-22T07:02:08.733Z,72.70
2019-02-22T07:03:13.471Z,73.12
2019-02-22T07:04:18.487Z,71.45
2019-02-22T07:05:23.829Z,75.95
2019-02-22T07:06:28.582Z,72.67
2019-02-22T07:07:33.581Z,74.32
2019-02-22T07:08:38.620Z,78.12
2019-02-22T07:09:44.145Z,78.52
2019-02-22T07:11:05.049Z,83.15
2019-02-22T07:12:14.136Z,75.72
2019-02-22T07:13:19.797Z,75.90
2019-02-22T07:14:25.095Z,80.42
2019-02-22T07:15:31.849Z,77.82
2019-02-22T07:16:37.156Z,71.92
2019-02-22T07:17:42.145Z,75.75
2019-02-22T07:18:47.139Z,80.05
2019-02-22T07:19:51.843Z,78.47
2019-02-22T07:20:56.859Z,75.35
2019-02-22T07:22:01.870Z,80.03
2019-02-22T07:23:06.915Z,84.32
2019-02-22T07:24:12.234Z,83.90
2019-02-22T07:25:17.769Z,84.13
2019-02-22T07:26:22.785Z,77.35
2019-02-22T07:27:28.341Z,81.82
2019-02-22T07:28:33.312Z,77.78
2019-02-22T07:29:38.571Z,78.60
2019-02-22T07:30:43.555Z,77.60
2019-02-22T07:31:48.534Z,76.87
2019-02-22T07:32:53.901Z,81.22
2019-02-22T07:33:58.813Z,78.67
2019-02-22T07:35:04.249Z,80.77
2019-02-22T07:36:09.017Z,79.60
2019-02-22T07:37:13.783Z,81.97
2019-02-22T07:38:19.046Z,79.62
2019-02-22T07:39:27.913Z,87.85
2019-02-22T07:40:31.324Z,82.30
2019-02-22T07:41:36.598Z,85.40
2019-02-22T07:42:42.165Z,81.55
2019-02-22T07:43:47.133Z,82.12
2019-02-22T07:44:52.720Z,81.92
2019-02-22T07:45:57.700Z,81.63
2019-02-22T07:47:02.761Z,81.80
2019-02-22T07:48:08.007Z,78.22
2019-02-22T07:49:15.991Z,79.42
2019-02-22T07:50:21.282Z,86.45
2019-02-22T07:51:25.987Z,85.77
2019-02-22T07:52:30.684Z,81.92
2019-02-22T07:53:35.742Z,78.15
2019-02-22T07:54:41.021Z,81.20
2019-02-22T07:55:46.369Z,76.20
2019-02-22T07:56:51.054Z,86.20
2019-02-22T07:57:55.519Z,89.00
2019-02-22T07:59:03.001Z,82.60
2019-02-22T08:00:09.445Z,83.78
2019-02-22T08:01:14.743Z,79.47
2019-02-22T08:02:20.276Z,80.12
2019-02-22T08:03:25.567Z,77.62
2019-02-22T08:04:30.243Z,75.57
2019-02-22T08:05:35.583Z,84.85
2019-02-22T08:06:42.404Z,77.42
2019-02-22T08:07:46.991Z,76.40
2019-02-22T08:08:52.221Z,79.95
2019-02-22T08:09:57.480Z,75.75
2019-02-22T08:11:02.467Z,74.05
2019-02-22T08:12:07.160Z,75.08
2019-02-22T08:13:19.700Z,85.38
2019-02-22T08:14:19.133Z,83.92
2019-02-22T08:15:24.412Z,87.12
2019-02-22T08:16:29.066Z,78.97
2019-02-22T08:17:34.325Z,77.32
2019-02-22T08:18:40.205Z,79.82
2019-02-22T08:19:45.179Z,74.82
2019-02-22T08:20:49.926Z,77.53
2019-02-22T08:21:55.174Z,78.95
2019-02-22T08:22:59.889Z,76.50
2019-02-22T08:24:05.013Z,72.37
2019-02-22T08:25:09.974Z,71.80
2019-02-22T08:26:15.657Z,71.53
2019-02-22T08:27:21.120Z,76.00
2019-02-22T08:28:25.586Z,71.65
2019-02-22T08:29:30.272Z,71.47
2019-02-22T08:30:35.583Z,68.35
2019-02-22T08:31:40.269Z,66.85
2019-02-22T08:32:45.822Z,70.85
2019-02-22T08:33:52.852Z,72.00
2019-02-22T08:34:57.832Z,77.20
2019-02-22T08:36:02.775Z,77.17
2019-02-22T08:37:07.628Z,76.05
2019-02-22T08:38:12.295Z,85.17
2019-02-22T08:39:17.764Z,85.30
2019-02-22T08:40:22.715Z,81.75
2019-02-22T08:41:27.397Z,82.95
2019-02-22T08:42:32.689Z,79.80
2019-02-22T08:43:37.926Z,76.47
2019-02-22T08:44:43.313Z,77.12
2019-02-22T08:45:48.289Z,77.72
2019-02-22T08:46:53.571Z,80.07
2019-02-22T08:47:58.569Z,74.62
2019-02-22T08:49:03.379Z,75.57
2019-02-22T08:50:08.486Z,78.62
2019-02-22T08:51:13.461Z,81.70
2019-02-22T08:52:18.714Z,74.32
2019-02-22T08:53:23.623Z,81.25
2019-02-22T08:54:28.906Z,80.03
2019-02-22T08:55:36.598Z,74.65
2019-02-22T08:56:41.271Z,73.70
2019-02-22T08:57:45.966Z,75.45
2019-02-22T08:58:51.211Z,72.85
2019-02-22T08:59:56.236Z,70.75
2019-02-22T09:01:01.630Z,75.97
2019-02-22T09:02:06.339Z,79.00
2019-02-22T09:03:11.311Z,73.17
2019-02-22T09:04:16.004Z,75.65
2019-02-22T09:05:20.443Z,75.40
2019-02-22T09:06:26.009Z,77.10
2019-02-22T09:07:30.970Z,73.42
2019-02-22T09:08:36.230Z,72.92
2019-02-22T09:09:41.218Z,71.80
2019-02-22T09:10:46.213Z,69.80
2019-02-22T09:11:51.192Z,66.60
2019-02-22T09:12:56.561Z,72.32
2019-02-22T09:14:01.333Z,69.95
2019-02-22T09:15:06.186Z,67.65
2019-02-22T09:16:11.159Z,67.85
2019-02-22T09:17:16.261Z,65.47
2019-02-22T09:18:21.538Z,67.37
2019-02-22T09:19:26.250Z,60.88
2019-02-22T09:20:30.955Z,68.22
2019-02-22T09:21:35.685Z,64.72
2019-02-22T09:22:40.676Z,64.55
2019-02-22T09:23:45.171Z,58.28
2019-02-22T09:24:49.912Z,62.88
2019-02-22T09:25:54.652Z,56.92
2019-02-22T09:26:59.949Z,58.20
2019-02-22T09:28:05.265Z,52.30
2019-02-22T09:29:10.225Z,55.38
2019-02-22T09:30:15.184Z,53.87
2019-02-22T09:31:19.887Z,53.48
2019-02-22T09:32:25.216Z,54.93
2019-02-22T09:33:30.208Z,54.53
2019-02-22T09:34:35.089Z,53.28
2019-02-22T09:35:40.022Z,54.55
2019-02-22T09:36:44.987Z,60.43
2019-02-22T09:37:49.942Z,53.87
2019-02-22T09:38:55.218Z,53.55
2019-02-22T09:40:00.349Z,50.23
2019-02-22T09:41:07.817Z,45.88
2019-02-22T09:42:12.902Z,47.48
2019-02-22T09:43:18.006Z,44.95
2019-02-22T09:44:23.261Z,44.95
2019-02-22T09:45:27.719Z,45.10
2019-02-22T09:46:32.962Z,42.65
2019-02-22T09:47:37.997Z,45.10
2019-02-22T09:48:43.231Z,42.55
2019-02-22T09:49:48.302Z,45.58
2019-02-22T09:50:53.285Z,44.53
2019-02-22T09:51:58.549Z,39.83
2019-02-22T09:53:04.621Z,42.55
2019-02-22T09:54:09.658Z,43.73
2019-02-22T09:55:14.096Z,43.20
2019-02-22T09:56:19.348Z,41.73
2019-02-22T09:57:24.373Z,40.83
2019-02-22T09:58:29.601Z,42.35
2019-02-22T09:59:34.640Z,40.10
2019-02-22T10:00:39.689Z,43.50
2019-02-22T10:01:44.957Z,41.77
2019-02-22T10:02:50.216Z,41.73
2019-02-22T10:03:55.485Z,41.18
2019-02-22T10:05:00.516Z,41.42
2019-02-22T10:06:05.261Z,42.48
2019-02-22T10:07:10.031Z,41.65
2019-02-22T10:08:15.316Z,39.33
2019-02-22T10:09:20.305Z,43.00
2019-02-22T10:10:25.321Z,41.98
2019-02-22T10:11:30.598Z,42.17
2019-02-22T10:12:35.577Z,37.78
2019-02-22T10:13:40.823Z,38.58
2019-02-22T10:14:45.786Z,36.68
2019-02-22T10:15:50.499Z,42.13
2019-02-22T10:16:55.506Z,39.85
2019-02-22T10:18:00.510Z,37.17
2019-02-22T10:19:05.815Z,38.70
2019-02-22T10:20:10.859Z,38.13
2019-02-22T10:21:16.166Z,38.65
2019-02-22T10:22:20.883Z,35.25
2019-02-22T10:23:26.175Z,35.30
2019-02-22T10:24:31.166Z,31.60
2019-02-22T10:25:36.146Z,30.25
2019-02-22T10:26:40.857Z,33.53
2019-02-22T10:27:46.114Z,30.92
2019-02-22T10:28:51.396Z,30.65
2019-02-22T10:29:56.135Z,29.90
2019-02-22T10:31:00.968Z,29.87
2019-02-22T10:32:05.886Z,29.48
2019-02-22T10:33:10.845Z,29.67
2019-02-22T10:34:16.532Z,28.65
2019-02-22T10:35:21.308Z,27.17
2019-02-22T10:36:25.998Z,29.30
2019-02-22T10:37:30.785Z,28.23
2019-02-22T10:38:36.103Z,25.15
2019-02-22T10:39:40.869Z,24.77
2019-02-22T10:40:45.987Z,25.10
2019-02-22T10:41:51.255Z,24.37
2019-02-22T10:42:55.949Z,25.48
2019-02-22T10:44:01.507Z,22.05
2019-02-22T10:45:06.741Z,24.20
2019-02-22T10:46:12.010Z,21.60
2019-02-22T10:47:16.699Z,22.73
2019-02-22T10:48:21.760Z,20.65
2019-02-22T10:49:26.627Z,21.27
2019-02-22T10:50:31.883Z,19.87
2019-02-22T10:51:37.007Z,22.82
2019-02-22T10:52:41.759Z,22.95
2019-02-22T10:53:47.051Z,19.45
2019-02-22T10:54:52.326Z,20.15
2019-02-22T10:55:57.457Z,18.50
2019-02-22T10:57:02.153Z,20.32
2019-02-22T10:58:07.129Z,21.70
2019-02-22T10:59:11.863Z,20.52
2019-02-22T11:00:16.486Z,21.07
2019-02-22T11:01:21.399Z,23.18
2019-02-22T11:02:26.656Z,21.42
2019-02-22T11:03:31.681Z,22.25
2019-02-22T11:04:36.761Z,22.70
2019-02-22T11:05:42.084Z,22.60
2019-02-22T11:06:47.601Z,23.35
2019-02-22T11:07:52.844Z,25.20
2019-02-22T11:08:57.631Z,23.92
2019-02-22T11:10:02.646Z,24.82
2019-02-22T11:11:07.931Z,23.55
2019-02-22T11:12:12.930Z,22.27
2019-02-22T11:13:17.640Z,21.90
2019-02-22T11:14:29.306Z,24.05
2019-02-22T11:15:29.667Z,21.73
2019-02-22T11:16:34.940Z,22.70
2019-02-22T11:17:40.453Z,23.50
2019-02-22T11:18:45.728Z,22.17
2019-02-22T11:19:51.026Z,21.27
2019-02-22T11:20:56.033Z,21.42
2019-02-22T11:22:00.897Z,24.10
2019-02-22T11:23:06.397Z,21.73
2019-02-22T11:24:11.155Z,21.95
2019-02-22T11:25:16.180Z,21.73
2019-02-22T11:26:21.186Z,20.85
2019-02-22T11:27:26.462Z,23.35
2019-02-22T11:28:31.740Z,23.90
2019-02-22T11:29:36.422Z,23.47
2019-02-22T11:30:41.459Z,22.13
2019-02-22T11:31:46.429Z,22.13
2019-02-22T11:32:51.393Z,21.97
2019-02-22T11:33:57.498Z,21.65
2019-02-22T11:35:02.520Z,21.82
2019-02-22T11:36:07.262Z,19.85
2019-02-22T11:37:12.261Z,19.77
2019-02-22T11:38:17.006Z,21.57
2019-02-22T11:39:22.321Z,22.50
2019-02-22T11:40:27.067Z,20.15
2019-02-22T11:41:32.039Z,19.15
2019-02-22T11:42:37.331Z,20.85
2019-02-22T11:43:42.677Z,20.62
2019-02-22T11:44:48.143Z,19.85
2019-02-22T11:45:53.424Z,18.65
2019-02-22T11:46:57.920Z,21.17
2019-02-22T11:48:09.034Z,19.37
2019-02-22T11:49:09.358Z,20.77
2019-02-22T11:50:14.376Z,18.02
2019-02-22T11:51:19.354Z,18.00
2019-02-22T11:52:24.422Z,18.00
2019-02-22T11:53:29.408Z,21.30
2019-02-22T11:54:34.386Z,16.67
2019-02-22T11:55:38.913Z,16.97
2019-02-22T11:56:43.723Z,17.35
2019-02-22T11:57:48.916Z,15.40
2019-02-22T11:58:53.908Z,16.97
2019-02-22T11:59:58.593Z,16.70
2019-02-22T12:01:03.578Z,16.20
2019-02-22T12:02:08.544Z,15.45
2019-02-22T12:03:24.291Z,15.25
2019-02-22T12:04:20.788Z,15.85
2019-02-22T12:05:25.746Z,17.27
2019-02-22T12:06:30.721Z,17.60
2019-02-22T12:07:35.424Z,16.25
2019-02-22T12:08:40.469Z,17.67
2019-02-22T12:09:45.646Z,18.45
2019-02-22T12:10:50.635Z,18.37
2019-02-22T12:11:55.936Z,16.62
2019-02-22T12:13:01.222Z,16.67
2019-02-22T12:14:06.253Z,15.10
2019-02-22T12:15:11.036Z,15.93
2019-02-22T12:16:16.008Z,17.62
2019-02-22T12:17:21.287Z,17.70
2019-02-22T12:18:26.647Z,14.90
2019-02-22T12:19:31.904Z,16.77
2019-02-22T12:20:36.866Z,16.02
2019-02-22T12:21:41.848Z,15.28
2019-02-22T12:22:47.132Z,14.78
2019-02-22T12:23:53.011Z,14.98
2019-02-22T12:24:58.614Z,16.65
2019-02-22T12:26:03.614Z,15.23
2019-02-22T12:27:08.351Z,15.40
2019-02-22T12:28:12.898Z,13.88
2019-02-22T12:29:18.165Z,15.13
2019-02-22T12:30:22.621Z,16.87
2019-02-22T12:31:27.632Z,16.70
2019-02-22T12:32:32.329Z,14.50
2019-02-22T12:33:37.639Z,16.17
2019-02-22T12:34:42.333Z,14.80
2019-02-22T12:35:47.336Z,13.98
2019-02-22T12:36:52.543Z,12.47
2019-02-22T12:37:57.808Z,13.75
2019-02-22T12:39:03.447Z,13.70
2019-02-22T12:40:09.182Z,13.80
2019-02-22T12:41:14.146Z,12.55
2019-02-22T12:42:19.411Z,11.53
2019-02-22T12:43:24.407Z,14.30
2019-02-22T12:44:29.658Z,13.15
2019-02-22T12:45:34.647Z,14.73
2019-02-22T12:46:39.625Z,14.70
2019-02-22T12:47:44.604Z,13.98
2019-02-22T12:48:49.831Z,14.07
2019-02-22T12:49:54.856Z,13.32
2019-02-22T12:50:59.916Z,13.20
2019-02-22T12:52:04.641Z,14.73
2019-02-22T12:53:09.941Z,14.07
2019-02-22T12:54:14.631Z,12.63
2019-02-22T12:55:19.701Z,14.83
2019-02-22T12:56:56.013Z,13.43
2019-02-22T12:57:31.130Z,14.78
2019-02-22T12:58:36.153Z,14.28
2019-02-22T12:59:41.072Z,13.03
2019-02-22T13:00:46.415Z,12.20
2019-02-22T13:01:51.249Z,13.35
2019-02-22T13:03:01.847Z,14.30
2019-02-22T13:04:03.297Z,13.48
2019-02-22T13:05:09.263Z,16.02
2019-02-22T13:06:14.242Z,14.03
2019-02-22T13:07:19.564Z,15.63
2019-02-22T13:08:24.294Z,15.20
2019-02-22T13:09:36.395Z,15.90
2019-02-22T13:10:36.394Z,12.75
2019-02-22T13:11:41.647Z,13.48
2019-02-22T13:12:46.847Z,14.78
2019-02-22T13:13:52.094Z,14.40
2019-02-22T13:14:56.873Z,13.68
2019-02-22T13:16:01.927Z,13.45
2019-02-22T13:17:07.191Z,12.60
2019-02-22T13:18:11.891Z,14.55
2019-02-22T13:19:16.587Z,12.68
2019-02-22T13:20:21.579Z,14.50
2019-02-22T13:21:26.556Z,14.53
2019-02-22T13:22:31.252Z,13.58
2019-02-22T13:23:36.322Z,13.93
2019-02-22T13:24:41.310Z,15.32
2019-02-22T13:25:46.611Z,13.80
2019-02-22T13:26:51.875Z,14.20
2019-02-22T13:27:57.413Z,15.30
2019-02-22T13:29:04.843Z,13.65
2019-02-22T13:30:10.222Z,12.05
2019-02-22T13:31:15.478Z,13.80
2019-02-22T13:32:20.734Z,11.80
2019-02-22T13:33:26.271Z,15.70
2019-02-22T13:34:31.246Z,14.20
2019-02-22T13:35:36.238Z,12.43
2019-02-22T13:36:41.505Z,13.83
2019-02-22T13:37:46.233Z,12.95
2019-02-22T13:38:51.223Z,15.58
2019-02-22T13:39:55.932Z,14.38
2019-02-22T13:41:01.233Z,13.70
2019-02-22T13:42:06.050Z,14.55
2019-02-22T13:43:11.357Z,12.63
2019-02-22T13:44:16.040Z,13.68
2019-02-22T13:45:26.509Z,12.68
2019-02-22T13:46:27.243Z,12.95
2019-02-22T13:47:31.937Z,12.80
2019-02-22T13:48:36.920Z,11.20
2019-02-22T13:49:42.967Z,10.32
2019-02-22T13:50:48.082Z,11.63
2019-02-22T13:51:53.127Z,9.70
2019-02-22T13:52:58.467Z,9.70
2019-02-22T13:54:03.481Z,10.65
2019-02-22T13:55:08.687Z,9.28
2019-02-22T13:56:13.722Z,8.43
2019-02-22T13:57:18.186Z,9.33
2019-02-22T13:58:23.187Z,7.58
2019-02-22T13:59:28.252Z,9.00
2019-02-22T14:00:33.341Z,8.20
2019-02-22T14:01:38.942Z,8.70
2019-02-22T14:02:43.937Z,9.10